Aeroporto :
LOGIN :

Iscrizione | Disclaimer

   EN    FR    IT 

 










Sommario :    VFR   VFR Marginale   IFR   IFR Intensivo   IFR Molto Intensivo
Visibilità : 
Base nubi : 
>= 8 km
>= 3000ft
5 / 8 km
1000 / 3000 ft
1500m / 5 km
500 / 1000 ft
800 / 1500m
200 / 500 ft
< 800m
< 200 ft
Simboli :   Temporali  Nebbia  Neve Forte  Precipitazioni Forti  Vento > 20 kt
SIGMETs :   Varie  Temporali  Ghiacco  Turbolenza  Onda orograficha  Ceneri Vulcaniche







- Altitudine del aeroporto : 124 ft
- Codice IATA : NHT
- Carte del aeroporto


EGWU - RAF Northolt

ULTIMO METAR :
  • 181350Z 17014KT 9999 FEW024 BKN240 10/05 Q1006 TEMPO SCT020

METARs OBSOLETI :
  • 181250Z 17018KT 9999 FEW020 BKN130 BKN160 10/06 Q1006 BLU TEMPO SCT020 WHT
  • 181150Z 17016KT 9999 SCT018 BKN120 10/07 Q1008 WHT TEMPO FEW018 BLU

TAF TAF EGWU
Valido dal 18 a 15 ore il 19 a 09 ore UTC


181350Z 1815/1909 17017G27KT 9999 FEW020
BECMG 1815/1818 -RA BKN012
TEMPO 1816/1821 5000 -RADZ
PROB30
TEMPO 1818/1820 4000 RA SCT006
BECMG 1820/1823 22008KT SCT030
PROB30
TEMPO 1902/1909 5000 SHRA BKN020
Nessun NOTAM noto per questo aeroporto.
4 SIGMETs conosciuti per la FIR London (EGTT) :
 
Forte onda orograficha
EGTT SIGMET 08 VALID 181500/181900 EGRR
EGTT LONDON FIR SEV MTW FCST WI N5220 W00530 - N5500 W00530 - N5500 W00015 - N5024 W00255 - N4959 W00548 - N5220 W00530 FL030/250 STNR WKN=
Turbolenza severa
EGTT SIGMET 07 VALID 181100/181500 EGRR
EGTT LONDON FIR SEV TURB FCST WI N5100 W00800 - N5117 W00728 - N4932 W00752 - N4932 W00800 - N5100 W00800 FL220/350 MOV E 10KT WKN=
Turbolenza severa
EGTT SIGMET 06 VALID 181100/181500 EGRR
EGTT LONDON FIR SEV TURB FCST WI N5000 W00200 - N4919 W00530 - N5500 W00530 - N5500 E00100 - N5000 W00017 - N5000 W00200 SFC/FL060 MOV E 10KT WKN=
Forte onda orograficha
EGTT SIGMET 05 VALID 181100/181500 EGRR
EGTT LONDON FIR SEV MTW FCST WI N5220 W00530 - N5500 W00530 - N5500 W00015 - N5024 W00255 - N4959 W00548 - N5220 W00530 - N5220 W00530 FL030/250 STNR NC=



MetMap, La meteo Aeronautica in un colpo d'occhio ! - Copyright ORBIFLY Dicembre 2007 - Disclaimer

ORBIFLY MET'MAP TEAM :

Programmazione e sviluppo : Alexandra Zaïnal
Concezione e sviluppo : Baudouin d'Aumeries
Co-Programmazione e sviluppo : Marc-Olivier Méhu
Supporto tecnico e logistico : Manuel Goepfert
Aiuto per la traduzione : Arnaldo La Scala

Contatto : metmap@orbifly.com




FONTI E CREDITI :

   NOAA